sensor_id;sensor_type;location;lat;lon;timestamp;temperature;humidity
24232;DHT22;12364;47.810;8.810;2023-03-08T04:47:46;7.40;79.20
24232;DHT22;12364;47.810;8.810;2023-03-08T04:50:13;7.50;79.30
24232;DHT22;12364;47.810;8.810;2023-03-08T04:52:39;7.40;79.20
24232;DHT22;12364;47.810;8.810;2023-03-08T04:55:07;7.30;78.80
24232;DHT22;12364;47.810;8.810;2023-03-08T04:57:33;7.20;78.90
24232;DHT22;12364;47.810;8.810;2023-03-08T05:00:01;7.10;78.90
24232;DHT22;12364;47.810;8.810;2023-03-08T05:02:28;7.10;79.10
24232;DHT22;12364;47.810;8.810;2023-03-08T05:04:55;7.20;79.30
24232;DHT22;12364;47.810;8.810;2023-03-08T05:07:22;6.90;79.30
24232;DHT22;12364;47.810;8.810;2023-03-08T05:09:49;6.90;79.50
24232;DHT22;12364;47.810;8.810;2023-03-08T05:12:16;6.90;79.60
24232;DHT22;12364;47.810;8.810;2023-03-08T05:14:43;6.90;79.70
24232;DHT22;12364;47.810;8.810;2023-03-08T05:17:10;6.90;79.60
24232;DHT22;12364;47.810;8.810;2023-03-08T05:19:37;6.80;79.80
24232;DHT22;12364;47.810;8.810;2023-03-08T05:22:04;6.90;80.10
24232;DHT22;12364;47.810;8.810;2023-03-08T05:24:31;7.00;79.90
24232;DHT22;12364;47.810;8.810;2023-03-08T05:26:58;7.00;79.90
24232;DHT22;12364;47.810;8.810;2023-03-08T05:29:25;6.90;79.90
24232;DHT22;12364;47.810;8.810;2023-03-08T05:31:52;6.90;80.00
24232;DHT22;12364;47.810;8.810;2023-03-08T05:34:19;6.90;80.30
24232;DHT22;12364;47.810;8.810;2023-03-08T05:36:46;7.00;80.30
24232;DHT22;12364;47.810;8.810;2023-03-08T05:39:13;7.10;80.10
24232;DHT22;12364;47.810;8.810;2023-03-08T05:41:40;7.10;80.30
24232;DHT22;12364;47.810;8.810;2023-03-08T05:44:07;7.10;80.10
24232;DHT22;12364;47.810;8.810;2023-03-08T05:46:34;7.20;80.10
24232;DHT22;12364;47.810;8.810;2023-03-08T05:49:04;7.20;80.00
24232;DHT22;12364;47.810;8.810;2023-03-08T05:51:31;7.20;80.10
24232;DHT22;12364;47.810;8.810;2023-03-08T05:53:58;7.10;80.00
24232;DHT22;12364;47.810;8.810;2023-03-08T05:56:25;7.10;80.10
24232;DHT22;12364;47.810;8.810;2023-03-08T05:58:52;7.10;80.20
24232;DHT22;12364;47.810;8.810;2023-03-08T06:01:20;7.10;80.30
24232;DHT22;12364;47.810;8.810;2023-03-08T06:03:49;7.10;80.50
24232;DHT22;12364;47.810;8.810;2023-03-08T06:06:16;7.10;80.50
24232;DHT22;12364;47.810;8.810;2023-03-08T06:08:43;7.20;80.50
24232;DHT22;12364;47.810;8.810;2023-03-08T06:11:11;7.20;80.60
24232;DHT22;12364;47.810;8.810;2023-03-08T06:13:38;7.20;80.90
24232;DHT22;12364;47.810;8.810;2023-03-08T06:16:05;7.20;80.80
24232;DHT22;12364;47.810;8.810;2023-03-08T06:18:32;7.20;80.80
24232;DHT22;12364;47.810;8.810;2023-03-08T06:21:03;7.20;80.90
24232;DHT22;12364;47.810;8.810;2023-03-08T06:23:31;7.20;80.90
24232;DHT22;12364;47.810;8.810;2023-03-08T06:25:58;7.20;80.80
24232;DHT22;12364;47.810;8.810;2023-03-08T06:28:25;7.20;80.80
24232;DHT22;12364;47.810;8.810;2023-03-08T06:30:53;7.20;80.80
24232;DHT22;12364;47.810;8.810;2023-03-08T06:33:21;7.20;81.10
24232;DHT22;12364;47.810;8.810;2023-03-08T06:36:02;7.20;81.10
24232;DHT22;12364;47.810;8.810;2023-03-08T06:38:30;7.20;80.90
24232;DHT22;12364;47.810;8.810;2023-03-08T06:40:59;7.30;80.60
24232;DHT22;12364;47.810;8.810;2023-03-08T06:43:26;7.30;80.60
24232;DHT22;12364;47.810;8.810;2023-03-08T06:45:54;7.20;80.60
24232;DHT22;12364;47.810;8.810;2023-03-08T06:48:21;7.30;80.70
24232;DHT22;12364;47.810;8.810;2023-03-08T06:50:48;7.30;80.50
24232;DHT22;12364;47.810;8.810;2023-03-08T06:53:15;7.30;80.40
24232;DHT22;12364;47.810;8.810;2023-03-08T06:55:42;7.40;81.20
24232;DHT22;12364;47.810;8.810;2023-03-08T06:58:09;7.40;80.60
24232;DHT22;12364;47.810;8.810;2023-03-08T07:00:36;7.50;80.80
24232;DHT22;12364;47.810;8.810;2023-03-08T07:03:03;7.50;80.90
24232;DHT22;12364;47.810;8.810;2023-03-08T07:05:30;7.60;81.00
24232;DHT22;12364;47.810;8.810;2023-03-08T07:07:57;7.60;81.00
24232;DHT22;12364;47.810;8.810;2023-03-08T07:10:24;7.60;81.00
24232;DHT22;12364;47.810;8.810;2023-03-08T07:12:51;7.70;81.00
24232;DHT22;12364;47.810;8.810;2023-03-08T07:15:19;7.70;81.20
24232;DHT22;12364;47.810;8.810;2023-03-08T07:17:47;7.70;81.20
24232;DHT22;12364;47.810;8.810;2023-03-08T07:20:15;7.80;81.50
24232;DHT22;12364;47.810;8.810;2023-03-08T07:22:42;7.80;81.70
24232;DHT22;12364;47.810;8.810;2023-03-08T07:25:11;7.90;82.00
24232;DHT22;12364;47.810;8.810;2023-03-08T07:27:38;8.00;82.30
24232;DHT22;12364;47.810;8.810;2023-03-08T07:30:05;8.00;82.30
24232;DHT22;12364;47.810;8.810;2023-03-08T07:32:35;8.00;82.80
24232;DHT22;12364;47.810;8.810;2023-03-08T07:35:03;8.10;82.80
24232;DHT22;12364;47.810;8.810;2023-03-08T07:37:30;8.10;83.20
24232;DHT22;12364;47.810;8.810;2023-03-08T07:39:57;8.20;83.30
24232;DHT22;12364;47.810;8.810;2023-03-08T07:42:24;8.30;82.90
24232;DHT22;12364;47.810;8.810;2023-03-08T07:44:53;8.40;82.80
24232;DHT22;12364;47.810;8.810;2023-03-08T07:47:19;8.60;83.10
24232;DHT22;12364;47.810;8.810;2023-03-08T07:49:47;8.50;82.70
24232;DHT22;12364;47.810;8.810;2023-03-08T07:52:14;8.60;82.80
24232;DHT22;12364;47.810;8.810;2023-03-08T07:54:41;8.60;82.60
24232;DHT22;12364;47.810;8.810;2023-03-08T07:57:12;8.70;83.00
24232;DHT22;12364;47.810;8.810;2023-03-08T07:59:40;8.70;83.20
24232;DHT22;12364;47.810;8.810;2023-03-08T08:02:11;8.70;83.20
24232;DHT22;12364;47.810;8.810;2023-03-08T08:04:39;8.80;83.10
24232;DHT22;12364;47.810;8.810;2023-03-08T08:07:10;8.90;83.30
24232;DHT22;12364;47.810;8.810;2023-03-08T08:09:37;8.90;83.30
24232;DHT22;12364;47.810;8.810;2023-03-08T08:12:04;9.10;83.70
24232;DHT22;12364;47.810;8.810;2023-03-08T08:14:31;9.10;83.50
24232;DHT22;12364;47.810;8.810;2023-03-08T08:16:58;9.10;83.40
24232;DHT22;12364;47.810;8.810;2023-03-08T08:19:25;9.20;84.00
24232;DHT22;12364;47.810;8.810;2023-03-08T08:21:52;9.20;84.10
24232;DHT22;12364;47.810;8.810;2023-03-08T08:24:19;9.20;84.40
24232;DHT22;12364;47.810;8.810;2023-03-08T08:26:46;9.20;84.70
24232;DHT22;12364;47.810;8.810;2023-03-08T08:29:13;9.30;85.00
24232;DHT22;12364;47.810;8.810;2023-03-08T08:31:40;9.30;85.50
24232;DHT22;12364;47.810;8.810;2023-03-08T08:34:07;9.30;85.80
24232;DHT22;12364;47.810;8.810;2023-03-08T08:36:34;9.20;86.50
24232;DHT22;12364;47.810;8.810;2023-03-08T08:39:01;9.20;87.00
24232;DHT22;12364;47.810;8.810;2023-03-08T08:41:28;9.30;87.60
24232;DHT22;12364;47.810;8.810;2023-03-08T08:43:57;9.40;87.40
24232;DHT22;12364;47.810;8.810;2023-03-08T08:46:25;9.50;87.60
24232;DHT22;12364;47.810;8.810;2023-03-08T08:48:54;9.50;87.70
24232;DHT22;12364;47.810;8.810;2023-03-08T08:51:21;9.60;87.90
24232;DHT22;12364;47.810;8.810;2023-03-08T08:53:48;9.40;88.00
24232;DHT22;12364;47.810;8.810;2023-03-08T08:56:16;9.40;88.20
24232;DHT22;12364;47.810;8.810;2023-03-08T08:58:58;9.50;88.20
24232;DHT22;12364;47.810;8.810;2023-03-08T09:01:30;9.50;88.30
24232;DHT22;12364;47.810;8.810;2023-03-08T09:03:58;9.50;88.60
24232;DHT22;12364;47.810;8.810;2023-03-08T09:06:25;9.50;89.00
24232;DHT22;12364;47.810;8.810;2023-03-08T09:08:54;9.60;88.50
24232;DHT22;12364;47.810;8.810;2023-03-08T09:11:21;9.70;88.60
24232;DHT22;12364;47.810;8.810;2023-03-08T09:13:48;9.60;89.00
24232;DHT22;12364;47.810;8.810;2023-03-08T09:16:33;9.60;89.00
24232;DHT22;12364;47.810;8.810;2023-03-08T09:19:01;9.80;88.90
24232;DHT22;12364;47.810;8.810;2023-03-08T09:21:29;9.90;88.90
24232;DHT22;12364;47.810;8.810;2023-03-08T09:24:03;10.00;87.90
24232;DHT22;12364;47.810;8.810;2023-03-08T09:26:31;10.00;88.10
24232;DHT22;12364;47.810;8.810;2023-03-08T09:28:59;10.10;88.20
24232;DHT22;12364;47.810;8.810;2023-03-08T09:31:31;10.00;88.10
24232;DHT22;12364;47.810;8.810;2023-03-08T09:33:58;9.90;89.60
24232;DHT22;12364;47.810;8.810;2023-03-08T09:36:25;9.90;89.80
24232;DHT22;12364;47.810;8.810;2023-03-08T09:38:55;10.00;88.80
24232;DHT22;12364;47.810;8.810;2023-03-08T09:41:34;10.20;88.50
24232;DHT22;12364;47.810;8.810;2023-03-08T09:46:56;10.30;88.90
24232;DHT22;12364;47.810;8.810;2023-03-08T09:49:27;10.20;89.10
24232;DHT22;12364;47.810;8.810;2023-03-08T09:54:27;10.30;89.70
24232;DHT22;12364;47.810;8.810;2023-03-08T09:56:54;10.30;90.00
24232;DHT22;12364;47.810;8.810;2023-03-08T10:00:05;10.40;90.10
24232;DHT22;12364;47.810;8.810;2023-03-08T10:09:39;10.70;90.60
24232;DHT22;12364;47.810;8.810;2023-03-08T10:12:30;10.70;90.70
24232;DHT22;12364;47.810;8.810;2023-03-08T10:15:08;10.70;90.70
24232;DHT22;12364;47.810;8.810;2023-03-08T10:17:39;10.70;90.90
24232;DHT22;12364;47.810;8.810;2023-03-08T10:20:13;10.80;91.10
24232;DHT22;12364;47.810;8.810;2023-03-08T10:22:42;10.90;91.20
24232;DHT22;12364;47.810;8.810;2023-03-08T10:25:15;11.00;91.30
24232;DHT22;12364;47.810;8.810;2023-03-08T10:27:44;11.00;91.40
24232;DHT22;12364;47.810;8.810;2023-03-08T10:30:14;11.00;91.80
24232;DHT22;12364;47.810;8.810;2023-03-08T10:32:41;11.10;92.00
24232;DHT22;12364;47.810;8.810;2023-03-08T10:35:09;11.10;92.20
24232;DHT22;12364;47.810;8.810;2023-03-08T10:37:36;11.10;92.40
24232;DHT22;12364;47.810;8.810;2023-03-08T10:40:13;11.10;92.60
24232;DHT22;12364;47.810;8.810;2023-03-08T10:42:50;11.10;92.90
24232;DHT22;12364;47.810;8.810;2023-03-08T10:45:19;11.20;93.30
24232;DHT22;12364;47.810;8.810;2023-03-08T10:47:55;11.20;93.70
24232;DHT22;12364;47.810;8.810;2023-03-08T10:50:24;11.20;94.10
24232;DHT22;12364;47.810;8.810;2023-03-08T10:52:51;11.40;94.30
24232;DHT22;12364;47.810;8.810;2023-03-08T10:57:50;11.20;94.90
24232;DHT22;12364;47.810;8.810;2023-03-08T11:02:46;11.20;95.00
24232;DHT22;12364;47.810;8.810;2023-03-08T11:05:18;11.50;95.00
24232;DHT22;12364;47.810;8.810;2023-03-08T11:07:53;11.40;95.00
24232;DHT22;12364;47.810;8.810;2023-03-08T11:10:21;11.40;95.20
24232;DHT22;12364;47.810;8.810;2023-03-08T11:13:15;11.40;95.50
24232;DHT22;12364;47.810;8.810;2023-03-08T11:15:46;11.30;95.80
24232;DHT22;12364;47.810;8.810;2023-03-08T11:18:27;11.40;95.80
24232;DHT22;12364;47.810;8.810;2023-03-08T11:20:59;11.30;96.00
24232;DHT22;12364;47.810;8.810;2023-03-08T11:23:35;11.30;96.30
24232;DHT22;12364;47.810;8.810;2023-03-08T11:26:20;11.40;96.30
24232;DHT22;12364;47.810;8.810;2023-03-08T11:31:40;11.40;96.70
24232;DHT22;12364;47.810;8.810;2023-03-08T11:36:40;11.10;98.10
24232;DHT22;12364;47.810;8.810;2023-03-08T11:44:26;11.20;97.90
24232;DHT22;12364;47.810;8.810;2023-03-08T11:55:14;11.10;98.30
24232;DHT22;12364;47.810;8.810;2023-03-08T11:57:47;11.30;98.10
24232;DHT22;12364;47.810;8.810;2023-03-08T12:02:48;11.40;98.20
24232;DHT22;12364;47.810;8.810;2023-03-08T12:05:26;11.30;98.40
24232;DHT22;12364;47.810;8.810;2023-03-08T12:08:07;11.30;98.40
24232;DHT22;12364;47.810;8.810;2023-03-08T12:10:57;11.40;98.20
24232;DHT22;12364;47.810;8.810;2023-03-08T12:13:30;11.40;98.30
24232;DHT22;12364;47.810;8.810;2023-03-08T12:23:44;11.50;98.50
24232;DHT22;12364;47.810;8.810;2023-03-08T12:26:16;11.20;99.00
24232;DHT22;12364;47.810;8.810;2023-03-08T12:29:05;11.30;99.30
24232;DHT22;12364;47.810;8.810;2023-03-08T12:31:44;11.20;99.20
24232;DHT22;12364;47.810;8.810;2023-03-08T12:36:58;11.20;99.90
24232;DHT22;12364;47.810;8.810;2023-03-08T12:42:36;11.40;99.70
24232;DHT22;12364;47.810;8.810;2023-03-08T12:44:42;11.40;99.90
24232;DHT22;12364;47.810;8.810;2023-03-08T12:49:41;11.70;99.90
24232;DHT22;12364;47.810;8.810;2023-03-08T12:54:55;11.80;99.80
24232;DHT22;12364;47.810;8.810;2023-03-08T12:57:23;11.90;99.70
24232;DHT22;12364;47.810;8.810;2023-03-08T12:59:56;11.90;99.10
24232;DHT22;12364;47.810;8.810;2023-03-08T13:02:26;11.90;99.10
24232;DHT22;12364;47.810;8.810;2023-03-08T13:05:03;11.90;99.30
24232;DHT22;12364;47.810;8.810;2023-03-08T13:07:32;12.00;99.20
24232;DHT22;12364;47.810;8.810;2023-03-08T13:10:17;12.10;99.00
24232;DHT22;12364;47.810;8.810;2023-03-08T13:20:16;12.30;99.20
24232;DHT22;12364;47.810;8.810;2023-03-08T13:22:56;12.30;99.20
24232;DHT22;12364;47.810;8.810;2023-03-08T13:28:13;12.20;99.40
24232;DHT22;12364;47.810;8.810;2023-03-08T13:30:48;12.20;99.60
24232;DHT22;12364;47.810;8.810;2023-03-08T13:33:19;12.10;99.90
24232;DHT22;12364;47.810;8.810;2023-03-08T13:35:53;12.00;99.90
24232;DHT22;12364;47.810;8.810;2023-03-08T13:38:21;12.00;99.90
24232;DHT22;12364;47.810;8.810;2023-03-08T13:40:49;11.90;99.90
24232;DHT22;12364;47.810;8.810;2023-03-08T13:43:17;11.90;99.90
24232;DHT22;12364;47.810;8.810;2023-03-08T13:45:46;12.00;99.90
24232;DHT22;12364;47.810;8.810;2023-03-08T13:48:14;12.00;99.90
24232;DHT22;12364;47.810;8.810;2023-03-08T13:50:42;12.10;99.90
24232;DHT22;12364;47.810;8.810;2023-03-08T13:53:12;12.00;99.90
24232;DHT22;12364;47.810;8.810;2023-03-08T13:55:43;12.00;99.90
24232;DHT22;12364;47.810;8.810;2023-03-08T13:58:14;12.20;99.90
24232;DHT22;12364;47.810;8.810;2023-03-08T14:00:45;12.40;99.90
24232;DHT22;12364;47.810;8.810;2023-03-08T14:03:18;12.40;99.90
24232;DHT22;12364;47.810;8.810;2023-03-08T14:05:46;12.50;99.90
24232;DHT22;12364;47.810;8.810;2023-03-08T14:08:18;12.40;99.90
24232;DHT22;12364;47.810;8.810;2023-03-08T14:10:48;12.60;99.90
24232;DHT22;12364;47.810;8.810;2023-03-08T14:13:23;12.60;99.90
24232;DHT22;12364;47.810;8.810;2023-03-08T14:16:08;12.50;99.90
24232;DHT22;12364;47.810;8.810;2023-03-08T14:18:40;12.40;99.90
24232;DHT22;12364;47.810;8.810;2023-03-08T14:21:12;12.50;99.90
24232;DHT22;12364;47.810;8.810;2023-03-08T14:23:47;12.60;99.90
24232;DHT22;12364;47.810;8.810;2023-03-08T14:26:22;12.80;99.90
24232;DHT22;12364;47.810;8.810;2023-03-08T14:28:49;13.00;99.80
24232;DHT22;12364;47.810;8.810;2023-03-08T14:31:27;13.00;99.30
24232;DHT22;12364;47.810;8.810;2023-03-08T14:33:56;13.10;99.50
24232;DHT22;12364;47.810;8.810;2023-03-08T14:36:23;13.20;99.50
24232;DHT22;12364;47.810;8.810;2023-03-08T14:38:50;13.10;99.20
24232;DHT22;12364;47.810;8.810;2023-03-08T14:41:17;13.20;99.50
24232;DHT22;12364;47.810;8.810;2023-03-08T14:43:54;13.20;99.40
24232;DHT22;12364;47.810;8.810;2023-03-08T14:46:21;13.20;99.20
24232;DHT22;12364;47.810;8.810;2023-03-08T14:49:02;13.30;99.40
24232;DHT22;12364;47.810;8.810;2023-03-08T14:51:35;13.40;99.20
24232;DHT22;12364;47.810;8.810;2023-03-08T14:54:04;13.50;98.80
24232;DHT22;12364;47.810;8.810;2023-03-08T14:56:32;13.40;98.90
24232;DHT22;12364;47.810;8.810;2023-03-08T14:58:59;13.40;99.00
24232;DHT22;12364;47.810;8.810;2023-03-08T15:01:28;13.50;99.00
24232;DHT22;12364;47.810;8.810;2023-03-08T15:03:55;13.50;98.80
24232;DHT22;12364;47.810;8.810;2023-03-08T15:06:27;13.70;98.70
24232;DHT22;12364;47.810;8.810;2023-03-08T15:08:55;13.50;98.50
24232;DHT22;12364;47.810;8.810;2023-03-08T15:11:22;13.50;98.50
24232;DHT22;12364;47.810;8.810;2023-03-08T15:13:49;13.60;98.50
24232;DHT22;12364;47.810;8.810;2023-03-08T15:16:16;13.40;98.30
24232;DHT22;12364;47.810;8.810;2023-03-08T15:18:43;13.40;98.30
24232;DHT22;12364;47.810;8.810;2023-03-08T15:21:14;13.40;98.40
24232;DHT22;12364;47.810;8.810;2023-03-08T15:23:42;13.50;98.40
24232;DHT22;12364;47.810;8.810;2023-03-08T15:26:12;13.60;98.00
24232;DHT22;12364;47.810;8.810;2023-03-08T15:28:39;13.70;98.00
24232;DHT22;12364;47.810;8.810;2023-03-08T15:31:07;13.70;97.70
24232;DHT22;12364;47.810;8.810;2023-03-08T15:33:34;13.90;97.60
24232;DHT22;12364;47.810;8.810;2023-03-08T15:36:01;13.80;97.50
24232;DHT22;12364;47.810;8.810;2023-03-08T15:38:28;13.70;97.80
24232;DHT22;12364;47.810;8.810;2023-03-08T15:40:55;13.60;98.00
24232;DHT22;12364;47.810;8.810;2023-03-08T15:43:22;13.30;97.80
24232;DHT22;12364;47.810;8.810;2023-03-08T15:45:49;13.20;98.70
24232;DHT22;12364;47.810;8.810;2023-03-08T15:48:16;13.30;98.20
24232;DHT22;12364;47.810;8.810;2023-03-08T15:50:44;13.30;98.60
24232;DHT22;12364;47.810;8.810;2023-03-08T15:53:11;13.20;98.60
24232;DHT22;12364;47.810;8.810;2023-03-08T15:55:51;13.00;98.50
24232;DHT22;12364;47.810;8.810;2023-03-08T15:58:18;12.80;98.90
24232;DHT22;12364;47.810;8.810;2023-03-08T16:00:45;12.90;99.90
24232;DHT22;12364;47.810;8.810;2023-03-08T16:03:12;12.80;99.90
24232;DHT22;12364;47.810;8.810;2023-03-08T16:05:40;12.90;99.90
24232;DHT22;12364;47.810;8.810;2023-03-08T16:08:07;13.00;99.90
24232;DHT22;12364;47.810;8.810;2023-03-08T16:10:34;13.10;99.80
24232;DHT22;12364;47.810;8.810;2023-03-08T16:13:06;13.20;99.50
24232;DHT22;12364;47.810;8.810;2023-03-08T16:15:33;13.20;99.10
24232;DHT22;12364;47.810;8.810;2023-03-08T16:18:00;13.10;99.00
24232;DHT22;12364;47.810;8.810;2023-03-08T16:20:27;13.10;99.30
24232;DHT22;12364;47.810;8.810;2023-03-08T16:22:54;13.10;99.40
24232;DHT22;12364;47.810;8.810;2023-03-08T16:25:21;13.10;99.20
24232;DHT22;12364;47.810;8.810;2023-03-08T16:27:48;13.10;99.10
24232;DHT22;12364;47.810;8.810;2023-03-08T16:30:15;13.10;99.10
24232;DHT22;12364;47.810;8.810;2023-03-08T16:32:43;13.10;98.90
24232;DHT22;12364;47.810;8.810;2023-03-08T16:35:10;13.10;98.80
24232;DHT22;12364;47.810;8.810;2023-03-08T16:37:38;13.10;99.10
24232;DHT22;12364;47.810;8.810;2023-03-08T16:40:05;13.00;99.10
24232;DHT22;12364;47.810;8.810;2023-03-08T16:42:33;13.00;99.20
24232;DHT22;12364;47.810;8.810;2023-03-08T16:45:00;12.90;99.30
24232;DHT22;12364;47.810;8.810;2023-03-08T16:47:27;12.90;99.40
24232;DHT22;12364;47.810;8.810;2023-03-08T16:49:58;12.80;99.40
24232;DHT22;12364;47.810;8.810;2023-03-08T16:52:26;12.90;99.60
24232;DHT22;12364;47.810;8.810;2023-03-08T16:54:53;12.90;99.40
24232;DHT22;12364;47.810;8.810;2023-03-08T16:57:20;12.80;99.50
24232;DHT22;12364;47.810;8.810;2023-03-08T16:59:47;12.70;99.50
24232;DHT22;12364;47.810;8.810;2023-03-08T17:02:15;12.60;99.80
24232;DHT22;12364;47.810;8.810;2023-03-08T17:04:42;12.50;99.80
24232;DHT22;12364;47.810;8.810;2023-03-08T17:07:09;12.40;99.90
24232;DHT22;12364;47.810;8.810;2023-03-08T17:09:36;12.20;99.90
24232;DHT22;12364;47.810;8.810;2023-03-08T17:12:04;12.20;99.90
24232;DHT22;12364;47.810;8.810;2023-03-08T17:14:31;12.20;99.90
24232;DHT22;12364;47.810;8.810;2023-03-08T17:17:00;12.40;99.90
24232;DHT22;12364;47.810;8.810;2023-03-08T17:19:28;12.50;99.90
24232;DHT22;12364;47.810;8.810;2023-03-08T17:21:55;12.60;99.90
24232;DHT22;12364;47.810;8.810;2023-03-08T17:24:22;12.70;99.90
24232;DHT22;12364;47.810;8.810;2023-03-08T17:26:49;12.80;99.90
24232;DHT22;12364;47.810;8.810;2023-03-08T17:29:18;12.60;99.90
24232;DHT22;12364;47.810;8.810;2023-03-08T17:31:45;12.50;99.90
24232;DHT22;12364;47.810;8.810;2023-03-08T17:34:12;12.60;99.90
24232;DHT22;12364;47.810;8.810;2023-03-08T17:36:39;12.50;99.90
24232;DHT22;12364;47.810;8.810;2023-03-08T17:39:07;12.40;99.90
24232;DHT22;12364;47.810;8.810;2023-03-08T17:41:34;12.40;99.90
24232;DHT22;12364;47.810;8.810;2023-03-08T17:44:01;12.40;99.90
24232;DHT22;12364;47.810;8.810;2023-03-08T17:46:28;12.20;99.90
24232;DHT22;12364;47.810;8.810;2023-03-08T17:48:55;12.30;99.90
24232;DHT22;12364;47.810;8.810;2023-03-08T17:51:24;12.40;99.90
24232;DHT22;12364;47.810;8.810;2023-03-08T17:53:51;12.40;99.90
24232;DHT22;12364;47.810;8.810;2023-03-08T17:56:19;12.60;99.90
24232;DHT22;12364;47.810;8.810;2023-03-08T17:58:47;12.60;99.90
24232;DHT22;12364;47.810;8.810;2023-03-08T18:01:22;12.70;99.90
24232;DHT22;12364;47.810;8.810;2023-03-08T18:03:49;12.60;99.90
24232;DHT22;12364;47.810;8.810;2023-03-08T18:08:50;12.50;99.90
24232;DHT22;12364;47.810;8.810;2023-03-08T18:11:17;12.30;99.90
24232;DHT22;12364;47.810;8.810;2023-03-08T18:13:44;12.10;99.90
24232;DHT22;12364;47.810;8.810;2023-03-08T18:16:11;12.20;99.90
24232;DHT22;12364;47.810;8.810;2023-03-08T18:18:38;12.40;99.90
24232;DHT22;12364;47.810;8.810;2023-03-08T18:21:05;12.40;99.90
24232;DHT22;12364;47.810;8.810;2023-03-08T18:23:40;12.50;99.90
24232;DHT22;12364;47.810;8.810;2023-03-08T18:26:09;12.60;99.90
24232;DHT22;12364;47.810;8.810;2023-03-08T18:28:36;12.60;99.90
24232;DHT22;12364;47.810;8.810;2023-03-08T18:31:09;12.90;99.90
24232;DHT22;12364;47.810;8.810;2023-03-08T18:33:37;12.80;99.90
24232;DHT22;12364;47.810;8.810;2023-03-08T18:36:05;13.00;99.90
24232;DHT22;12364;47.810;8.810;2023-03-08T18:38:32;12.90;99.90
24232;DHT22;12364;47.810;8.810;2023-03-08T18:41:08;12.60;99.90
24232;DHT22;12364;47.810;8.810;2023-03-08T18:43:35;12.50;99.90
24232;DHT22;12364;47.810;8.810;2023-03-08T18:46:05;12.60;99.90
24232;DHT22;12364;47.810;8.810;2023-03-08T18:48:36;12.70;99.90
24232;DHT22;12364;47.810;8.810;2023-03-08T18:51:03;12.80;99.90
24232;DHT22;12364;47.810;8.810;2023-03-08T18:53:30;12.70;99.90
24232;DHT22;12364;47.810;8.810;2023-03-08T18:55:58;12.60;99.90
24232;DHT22;12364;47.810;8.810;2023-03-08T18:58:26;12.60;99.90
24232;DHT22;12364;47.810;8.810;2023-03-08T19:00:54;12.70;99.90
24232;DHT22;12364;47.810;8.810;2023-03-08T19:03:23;12.70;99.90
24232;DHT22;12364;47.810;8.810;2023-03-08T19:05:50;12.70;99.90
24232;DHT22;12364;47.810;8.810;2023-03-08T19:08:17;12.60;99.90
24232;DHT22;12364;47.810;8.810;2023-03-08T19:10:44;12.60;99.90
24232;DHT22;12364;47.810;8.810;2023-03-08T19:13:11;12.80;99.90
24232;DHT22;12364;47.810;8.810;2023-03-08T19:15:38;12.80;99.90
24232;DHT22;12364;47.810;8.810;2023-03-08T19:18:05;12.60;99.90
24232;DHT22;12364;47.810;8.810;2023-03-08T19:20:36;12.60;99.90
24232;DHT22;12364;47.810;8.810;2023-03-08T19:23:03;12.70;99.90
24232;DHT22;12364;47.810;8.810;2023-03-08T19:25:31;12.70;99.90
24232;DHT22;12364;47.810;8.810;2023-03-08T19:27:58;12.80;99.90
24232;DHT22;12364;47.810;8.810;2023-03-08T19:30:25;13.00;99.90
24232;DHT22;12364;47.810;8.810;2023-03-08T19:32:54;12.90;99.90
24232;DHT22;12364;47.810;8.810;2023-03-08T19:35:21;12.80;99.90
24232;DHT22;12364;47.810;8.810;2023-03-08T19:37:48;12.80;99.90
24232;DHT22;12364;47.810;8.810;2023-03-08T19:40:15;12.80;99.90
24232;DHT22;12364;47.810;8.810;2023-03-08T19:42:43;12.60;99.90
24232;DHT22;12364;47.810;8.810;2023-03-08T19:45:10;12.50;99.90
24232;DHT22;12364;47.810;8.810;2023-03-08T19:47:37;12.50;99.90
24232;DHT22;12364;47.810;8.810;2023-03-08T19:50:04;12.60;99.90
24232;DHT22;12364;47.810;8.810;2023-03-08T19:52:31;12.70;99.90
24232;DHT22;12364;47.810;8.810;2023-03-08T19:54:58;12.80;99.90
24232;DHT22;12364;47.810;8.810;2023-03-08T19:57:25;12.90;99.90
24232;DHT22;12364;47.810;8.810;2023-03-08T19:59:52;12.90;99.90
24232;DHT22;12364;47.810;8.810;2023-03-08T20:02:22;13.00;99.90
24232;DHT22;12364;47.810;8.810;2023-03-08T20:04:49;13.00;99.90
24232;DHT22;12364;47.810;8.810;2023-03-08T20:07:16;13.00;99.90
24232;DHT22;12364;47.810;8.810;2023-03-08T20:09:43;13.10;99.90
24232;DHT22;12364;47.810;8.810;2023-03-08T20:12:10;13.00;99.90
24232;DHT22;12364;47.810;8.810;2023-03-08T20:14:37;12.90;99.90
24232;DHT22;12364;47.810;8.810;2023-03-08T20:17:04;13.00;99.90
24232;DHT22;12364;47.810;8.810;2023-03-08T20:19:31;13.00;99.90
24232;DHT22;12364;47.810;8.810;2023-03-08T20:21:59;13.00;99.90
24232;DHT22;12364;47.810;8.810;2023-03-08T20:24:27;13.10;99.90
24232;DHT22;12364;47.810;8.810;2023-03-08T20:26:54;13.10;99.90
24232;DHT22;12364;47.810;8.810;2023-03-08T20:29:21;13.20;99.90
24232;DHT22;12364;47.810;8.810;2023-03-08T20:31:48;13.10;99.90
24232;DHT22;12364;47.810;8.810;2023-03-08T20:34:15;13.00;99.90
24232;DHT22;12364;47.810;8.810;2023-03-08T20:36:43;12.90;99.90
24232;DHT22;12364;47.810;8.810;2023-03-08T20:39:10;12.90;99.90
24232;DHT22;12364;47.810;8.810;2023-03-08T20:41:37;12.90;99.90
24232;DHT22;12364;47.810;8.810;2023-03-08T20:44:03;12.90;99.90
24232;DHT22;12364;47.810;8.810;2023-03-08T20:46:30;13.00;99.90
24232;DHT22;12364;47.810;8.810;2023-03-08T20:48:59;13.10;99.90
24232;DHT22;12364;47.810;8.810;2023-03-08T20:51:26;12.90;99.90
24232;DHT22;12364;47.810;8.810;2023-03-08T20:53:54;12.90;99.90
24232;DHT22;12364;47.810;8.810;2023-03-08T20:56:21;12.90;99.90
24232;DHT22;12364;47.810;8.810;2023-03-08T20:58:49;12.70;99.90
24232;DHT22;12364;47.810;8.810;2023-03-08T21:01:17;12.60;99.90
24232;DHT22;12364;47.810;8.810;2023-03-08T21:03:45;12.70;99.90
24232;DHT22;12364;47.810;8.810;2023-03-08T21:06:12;12.60;99.90
24232;DHT22;12364;47.810;8.810;2023-03-08T21:08:40;12.60;99.90
24232;DHT22;12364;47.810;8.810;2023-03-08T21:11:07;12.60;99.90
24232;DHT22;12364;47.810;8.810;2023-03-08T21:13:34;12.70;99.90
24232;DHT22;12364;47.810;8.810;2023-03-08T21:16:02;12.90;99.90
24232;DHT22;12364;47.810;8.810;2023-03-08T21:18:29;13.00;99.90
24232;DHT22;12364;47.810;8.810;2023-03-08T21:20:57;13.00;99.90
24232;DHT22;12364;47.810;8.810;2023-03-08T21:23:24;13.00;99.90
24232;DHT22;12364;47.810;8.810;2023-03-08T21:25:51;12.80;99.90
24232;DHT22;12364;47.810;8.810;2023-03-08T21:28:19;12.90;99.90
24232;DHT22;12364;47.810;8.810;2023-03-08T21:30:46;13.00;99.90
24232;DHT22;12364;47.810;8.810;2023-03-08T21:33:13;13.00;99.90
24232;DHT22;12364;47.810;8.810;2023-03-08T21:35:40;12.90;99.90
24232;DHT22;12364;47.810;8.810;2023-03-08T21:38:08;12.80;99.90
24232;DHT22;12364;47.810;8.810;2023-03-08T21:40:35;12.80;99.90
24232;DHT22;12364;47.810;8.810;2023-03-08T21:43:03;12.80;99.90